sensor_id;sensor_type;location;lat;lon;timestamp;temperature;humidity
52555;DHT22;38455;52.710;6.502;2023-03-14T00:02:23;10.60;99.90
52555;DHT22;38455;52.710;6.502;2023-03-14T00:04:48;10.60;99.90
52555;DHT22;38455;52.710;6.502;2023-03-14T00:07:14;10.60;99.90
52555;DHT22;38455;52.710;6.502;2023-03-14T00:09:40;10.70;99.90
52555;DHT22;38455;52.710;6.502;2023-03-14T00:12:06;10.70;99.90
52555;DHT22;38455;52.710;6.502;2023-03-14T00:14:33;10.70;99.90
52555;DHT22;38455;52.710;6.502;2023-03-14T00:16:58;10.70;99.90
52555;DHT22;38455;52.710;6.502;2023-03-14T00:19:24;10.70;99.90
52555;DHT22;38455;52.710;6.502;2023-03-14T00:21:50;10.80;99.90
52555;DHT22;38455;52.710;6.502;2023-03-14T00:24:15;10.70;99.90
52555;DHT22;38455;52.710;6.502;2023-03-14T00:26:41;10.80;99.90
52555;DHT22;38455;52.710;6.502;2023-03-14T00:29:07;10.80;99.90
52555;DHT22;38455;52.710;6.502;2023-03-14T00:31:32;10.90;99.90
52555;DHT22;38455;52.710;6.502;2023-03-14T00:33:58;10.80;99.90
52555;DHT22;38455;52.710;6.502;2023-03-14T00:36:24;10.80;99.90
52555;DHT22;38455;52.710;6.502;2023-03-14T00:38:51;10.80;99.90
52555;DHT22;38455;52.710;6.502;2023-03-14T00:41:19;10.80;99.90
52555;DHT22;38455;52.710;6.502;2023-03-14T00:43:45;10.70;99.90
52555;DHT22;38455;52.710;6.502;2023-03-14T00:46:11;10.70;99.90
52555;DHT22;38455;52.710;6.502;2023-03-14T00:48:37;10.60;99.90
52555;DHT22;38455;52.710;6.502;2023-03-14T00:51:06;10.50;99.90
52555;DHT22;38455;52.710;6.502;2023-03-14T00:53:35;10.40;99.90
52555;DHT22;38455;52.710;6.502;2023-03-14T00:56:06;10.30;99.90
52555;DHT22;38455;52.710;6.502;2023-03-14T00:58:32;10.30;99.90
52555;DHT22;38455;52.710;6.502;2023-03-14T01:00:58;10.30;99.90
52555;DHT22;38455;52.710;6.502;2023-03-14T01:03:24;10.30;99.90
52555;DHT22;38455;52.710;6.502;2023-03-14T01:05:51;10.30;99.90
52555;DHT22;38455;52.710;6.502;2023-03-14T01:08:17;10.20;99.90
52555;DHT22;38455;52.710;6.502;2023-03-14T01:10:42;10.20;99.90
52555;DHT22;38455;52.710;6.502;2023-03-14T01:13:09;10.20;99.90
52555;DHT22;38455;52.710;6.502;2023-03-14T01:15:36;10.10;99.90
52555;DHT22;38455;52.710;6.502;2023-03-14T01:18:02;10.10;99.90
52555;DHT22;38455;52.710;6.502;2023-03-14T01:20:29;10.10;99.90
52555;DHT22;38455;52.710;6.502;2023-03-14T01:22:54;10.10;99.90
52555;DHT22;38455;52.710;6.502;2023-03-14T01:25:20;10.10;99.90
52555;DHT22;38455;52.710;6.502;2023-03-14T01:27:46;10.20;99.90
52555;DHT22;38455;52.710;6.502;2023-03-14T01:30:12;10.10;99.90
52555;DHT22;38455;52.710;6.502;2023-03-14T01:32:38;10.10;99.90
52555;DHT22;38455;52.710;6.502;2023-03-14T01:35:05;10.10;99.90
52555;DHT22;38455;52.710;6.502;2023-03-14T01:37:31;10.10;99.90
52555;DHT22;38455;52.710;6.502;2023-03-14T01:39:56;10.00;99.90
52555;DHT22;38455;52.710;6.502;2023-03-14T01:42:22;10.10;99.90
52555;DHT22;38455;52.710;6.502;2023-03-14T01:44:55;10.10;99.90
52555;DHT22;38455;52.710;6.502;2023-03-14T01:47:21;10.00;99.90
52555;DHT22;38455;52.710;6.502;2023-03-14T01:50:00;10.00;99.90
52555;DHT22;38455;52.710;6.502;2023-03-14T01:52:31;10.10;99.90
52555;DHT22;38455;52.710;6.502;2023-03-14T01:55:06;10.10;99.90
52555;DHT22;38455;52.710;6.502;2023-03-14T01:57:37;10.20;99.90
52555;DHT22;38455;52.710;6.502;2023-03-14T02:00:09;10.20;99.90
52555;DHT22;38455;52.710;6.502;2023-03-14T02:02:38;10.20;99.90
52555;DHT22;38455;52.710;6.502;2023-03-14T02:05:05;10.20;99.90
52555;DHT22;38455;52.710;6.502;2023-03-14T02:07:45;10.30;99.90
52555;DHT22;38455;52.710;6.502;2023-03-14T02:10:14;10.30;99.90
52555;DHT22;38455;52.710;6.502;2023-03-14T02:12:41;10.30;99.90
52555;DHT22;38455;52.710;6.502;2023-03-14T02:15:07;10.30;99.90
52555;DHT22;38455;52.710;6.502;2023-03-14T02:17:33;10.30;99.90
52555;DHT22;38455;52.710;6.502;2023-03-14T02:22:45;10.40;99.90
52555;DHT22;38455;52.710;6.502;2023-03-14T02:25:33;10.40;99.90
52555;DHT22;38455;52.710;6.502;2023-03-14T02:28:01;10.30;99.90
52555;DHT22;38455;52.710;6.502;2023-03-14T02:30:29;10.40;99.90
52555;DHT22;38455;52.710;6.502;2023-03-14T02:33:03;10.40;99.90
52555;DHT22;38455;52.710;6.502;2023-03-14T02:35:39;10.30;99.90
52555;DHT22;38455;52.710;6.502;2023-03-14T02:41:00;10.20;99.90
52555;DHT22;38455;52.710;6.502;2023-03-14T02:43:26;10.10;99.90
52555;DHT22;38455;52.710;6.502;2023-03-14T02:45:52;10.10;99.90
52555;DHT22;38455;52.710;6.502;2023-03-14T02:48:28;10.10;99.90
52555;DHT22;38455;52.710;6.502;2023-03-14T02:50:59;10.10;99.90
52555;DHT22;38455;52.710;6.502;2023-03-14T02:53:29;10.00;99.90
52555;DHT22;38455;52.710;6.502;2023-03-14T02:55:55;9.90;99.90
52555;DHT22;38455;52.710;6.502;2023-03-14T02:58:21;9.80;99.90
52555;DHT22;38455;52.710;6.502;2023-03-14T03:00:47;9.70;99.90
52555;DHT22;38455;52.710;6.502;2023-03-14T03:03:13;9.70;99.90
52555;DHT22;38455;52.710;6.502;2023-03-14T03:05:39;9.60;99.90
52555;DHT22;38455;52.710;6.502;2023-03-14T03:08:05;9.60;99.90
52555;DHT22;38455;52.710;6.502;2023-03-14T03:10:32;9.60;99.90
52555;DHT22;38455;52.710;6.502;2023-03-14T03:12:57;9.60;99.90
52555;DHT22;38455;52.710;6.502;2023-03-14T03:15:24;9.60;99.90
52555;DHT22;38455;52.710;6.502;2023-03-14T03:17:49;9.60;99.90
52555;DHT22;38455;52.710;6.502;2023-03-14T03:20:15;9.60;99.90
52555;DHT22;38455;52.710;6.502;2023-03-14T03:22:41;9.60;99.90
52555;DHT22;38455;52.710;6.502;2023-03-14T03:25:08;9.60;99.90
52555;DHT22;38455;52.710;6.502;2023-03-14T03:27:35;9.60;99.90
52555;DHT22;38455;52.710;6.502;2023-03-14T03:30:02;9.60;99.90
52555;DHT22;38455;52.710;6.502;2023-03-14T03:32:28;9.50;99.90
52555;DHT22;38455;52.710;6.502;2023-03-14T03:34:54;9.60;99.90
52555;DHT22;38455;52.710;6.502;2023-03-14T03:37:19;9.60;99.90
52555;DHT22;38455;52.710;6.502;2023-03-14T03:39:45;9.60;99.90
52555;DHT22;38455;52.710;6.502;2023-03-14T03:42:11;9.60;99.90
52555;DHT22;38455;52.710;6.502;2023-03-14T03:44:36;9.60;99.90
52555;DHT22;38455;52.710;6.502;2023-03-14T03:47:02;9.60;99.90
52555;DHT22;38455;52.710;6.502;2023-03-14T03:49:29;9.60;99.90
52555;DHT22;38455;52.710;6.502;2023-03-14T03:51:55;9.60;99.90
52555;DHT22;38455;52.710;6.502;2023-03-14T03:54:21;9.60;99.90
52555;DHT22;38455;52.710;6.502;2023-03-14T03:56:47;9.60;99.90
52555;DHT22;38455;52.710;6.502;2023-03-14T03:59:12;9.60;99.90
52555;DHT22;38455;52.710;6.502;2023-03-14T04:01:38;9.60;99.90
52555;DHT22;38455;52.710;6.502;2023-03-14T04:04:04;9.50;99.90
52555;DHT22;38455;52.710;6.502;2023-03-14T04:06:30;9.50;99.90
52555;DHT22;38455;52.710;6.502;2023-03-14T04:08:55;9.50;99.90
52555;DHT22;38455;52.710;6.502;2023-03-14T04:11:21;9.50;99.90
52555;DHT22;38455;52.710;6.502;2023-03-14T04:13:47;9.50;99.90
52555;DHT22;38455;52.710;6.502;2023-03-14T04:16:21;9.50;99.90
52555;DHT22;38455;52.710;6.502;2023-03-14T04:18:47;9.50;99.90
52555;DHT22;38455;52.710;6.502;2023-03-14T04:21:13;9.40;99.90
52555;DHT22;38455;52.710;6.502;2023-03-14T04:23:39;9.40;99.90
52555;DHT22;38455;52.710;6.502;2023-03-14T04:26:05;9.40;99.90
52555;DHT22;38455;52.710;6.502;2023-03-14T04:28:30;9.40;99.90
52555;DHT22;38455;52.710;6.502;2023-03-14T04:30:56;9.40;99.90
52555;DHT22;38455;52.710;6.502;2023-03-14T04:33:22;9.40;99.90
52555;DHT22;38455;52.710;6.502;2023-03-14T04:35:47;9.40;99.90
52555;DHT22;38455;52.710;6.502;2023-03-14T04:38:15;9.40;99.90
52555;DHT22;38455;52.710;6.502;2023-03-14T04:40:41;9.50;99.90
52555;DHT22;38455;52.710;6.502;2023-03-14T04:43:08;9.50;99.90
52555;DHT22;38455;52.710;6.502;2023-03-14T04:45:35;9.50;99.90
52555;DHT22;38455;52.710;6.502;2023-03-14T04:48:01;9.50;99.90
52555;DHT22;38455;52.710;6.502;2023-03-14T04:50:26;9.50;99.90
52555;DHT22;38455;52.710;6.502;2023-03-14T04:52:52;9.60;99.90
52555;DHT22;38455;52.710;6.502;2023-03-14T04:55:18;9.60;99.90
52555;DHT22;38455;52.710;6.502;2023-03-14T04:57:43;9.60;99.90
52555;DHT22;38455;52.710;6.502;2023-03-14T05:00:10;9.60;99.90
52555;DHT22;38455;52.710;6.502;2023-03-14T05:02:36;9.60;99.90
52555;DHT22;38455;52.710;6.502;2023-03-14T05:05:02;9.50;99.90
52555;DHT22;38455;52.710;6.502;2023-03-14T05:07:27;9.50;99.90
52555;DHT22;38455;52.710;6.502;2023-03-14T05:09:53;9.60;99.90
52555;DHT22;38455;52.710;6.502;2023-03-14T05:12:20;9.60;99.90
52555;DHT22;38455;52.710;6.502;2023-03-14T05:14:45;9.60;99.90
52555;DHT22;38455;52.710;6.502;2023-03-14T05:17:11;9.60;99.90
52555;DHT22;38455;52.710;6.502;2023-03-14T05:19:42;9.60;99.90
52555;DHT22;38455;52.710;6.502;2023-03-14T05:22:08;9.60;99.90
52555;DHT22;38455;52.710;6.502;2023-03-14T05:24:34;9.60;99.90
52555;DHT22;38455;52.710;6.502;2023-03-14T05:26:59;9.60;99.90
52555;DHT22;38455;52.710;6.502;2023-03-14T05:29:25;9.50;99.90
52555;DHT22;38455;52.710;6.502;2023-03-14T05:31:51;9.50;99.90
52555;DHT22;38455;52.710;6.502;2023-03-14T05:34:16;9.50;99.90
52555;DHT22;38455;52.710;6.502;2023-03-14T05:36:42;9.40;99.90
52555;DHT22;38455;52.710;6.502;2023-03-14T05:39:08;9.40;99.90
52555;DHT22;38455;52.710;6.502;2023-03-14T05:41:33;9.40;99.90
52555;DHT22;38455;52.710;6.502;2023-03-14T05:43:59;9.40;99.90
52555;DHT22;38455;52.710;6.502;2023-03-14T05:46:25;9.30;99.90
52555;DHT22;38455;52.710;6.502;2023-03-14T05:48:50;9.30;99.90
52555;DHT22;38455;52.710;6.502;2023-03-14T05:51:16;9.30;99.90
52555;DHT22;38455;52.710;6.502;2023-03-14T05:53:42;9.30;99.90
52555;DHT22;38455;52.710;6.502;2023-03-14T05:56:08;9.30;99.90
52555;DHT22;38455;52.710;6.502;2023-03-14T05:58:33;9.30;99.90
52555;DHT22;38455;52.710;6.502;2023-03-14T06:01:02;9.30;99.90
52555;DHT22;38455;52.710;6.502;2023-03-14T06:03:28;9.20;99.90
52555;DHT22;38455;52.710;6.502;2023-03-14T06:05:54;9.20;99.90
52555;DHT22;38455;52.710;6.502;2023-03-14T06:08:20;9.20;99.90
52555;DHT22;38455;52.710;6.502;2023-03-14T06:10:45;9.30;99.90
52555;DHT22;38455;52.710;6.502;2023-03-14T06:13:11;9.30;99.90
52555;DHT22;38455;52.710;6.502;2023-03-14T06:15:37;9.30;99.90
52555;DHT22;38455;52.710;6.502;2023-03-14T06:18:03;9.30;99.90
52555;DHT22;38455;52.710;6.502;2023-03-14T06:20:28;9.30;99.90
52555;DHT22;38455;52.710;6.502;2023-03-14T06:22:54;9.30;99.90
52555;DHT22;38455;52.710;6.502;2023-03-14T06:25:20;9.20;99.90
52555;DHT22;38455;52.710;6.502;2023-03-14T06:27:45;9.20;99.90
52555;DHT22;38455;52.710;6.502;2023-03-14T06:30:11;9.20;99.90
52555;DHT22;38455;52.710;6.502;2023-03-14T06:32:37;9.20;99.90
52555;DHT22;38455;52.710;6.502;2023-03-14T06:35:03;9.20;99.90
52555;DHT22;38455;52.710;6.502;2023-03-14T06:37:29;9.20;99.90
52555;DHT22;38455;52.710;6.502;2023-03-14T06:39:55;9.30;99.90
52555;DHT22;38455;52.710;6.502;2023-03-14T06:42:21;9.20;99.90
52555;DHT22;38455;52.710;6.502;2023-03-14T06:44:47;9.30;99.90
52555;DHT22;38455;52.710;6.502;2023-03-14T06:47:13;9.30;99.90
52555;DHT22;38455;52.710;6.502;2023-03-14T06:49:38;9.20;99.90
52555;DHT22;38455;52.710;6.502;2023-03-14T06:52:04;9.20;99.90
52555;DHT22;38455;52.710;6.502;2023-03-14T06:54:30;9.30;99.90
52555;DHT22;38455;52.710;6.502;2023-03-14T06:56:56;9.30;99.90
52555;DHT22;38455;52.710;6.502;2023-03-14T06:59:21;9.30;99.90
52555;DHT22;38455;52.710;6.502;2023-03-14T07:01:47;9.30;99.90
52555;DHT22;38455;52.710;6.502;2023-03-14T07:04:13;9.30;99.90
52555;DHT22;38455;52.710;6.502;2023-03-14T07:06:39;9.30;99.90
52555;DHT22;38455;52.710;6.502;2023-03-14T07:09:10;9.30;99.90
52555;DHT22;38455;52.710;6.502;2023-03-14T07:11:36;9.40;99.90
52555;DHT22;38455;52.710;6.502;2023-03-14T07:14:02;9.40;99.90
52555;DHT22;38455;52.710;6.502;2023-03-14T07:16:28;9.30;99.90
52555;DHT22;38455;52.710;6.502;2023-03-14T07:18:57;9.20;99.90
52555;DHT22;38455;52.710;6.502;2023-03-14T07:21:22;9.00;99.90
52555;DHT22;38455;52.710;6.502;2023-03-14T07:23:48;8.90;99.90
52555;DHT22;38455;52.710;6.502;2023-03-14T07:26:14;8.80;99.90
52555;DHT22;38455;52.710;6.502;2023-03-14T07:28:40;8.70;99.90
52555;DHT22;38455;52.710;6.502;2023-03-14T07:31:06;8.60;99.90
52555;DHT22;38455;52.710;6.502;2023-03-14T07:33:31;8.50;99.90
52555;DHT22;38455;52.710;6.502;2023-03-14T07:35:57;8.50;99.90
52555;DHT22;38455;52.710;6.502;2023-03-14T07:38:23;8.50;99.90
52555;DHT22;38455;52.710;6.502;2023-03-14T07:40:49;8.40;99.90
52555;DHT22;38455;52.710;6.502;2023-03-14T07:43:15;8.40;99.90
52555;DHT22;38455;52.710;6.502;2023-03-14T07:45:40;8.30;99.90
52555;DHT22;38455;52.710;6.502;2023-03-14T07:48:06;8.30;99.90
52555;DHT22;38455;52.710;6.502;2023-03-14T07:50:32;8.10;99.90
52555;DHT22;38455;52.710;6.502;2023-03-14T07:52:57;8.00;99.90
52555;DHT22;38455;52.710;6.502;2023-03-14T07:55:23;7.70;99.90
52555;DHT22;38455;52.710;6.502;2023-03-14T07:57:49;7.60;99.90
52555;DHT22;38455;52.710;6.502;2023-03-14T08:00:15;7.50;99.90
52555;DHT22;38455;52.710;6.502;2023-03-14T08:02:41;7.30;99.90
52555;DHT22;38455;52.710;6.502;2023-03-14T08:05:07;7.20;99.90
52555;DHT22;38455;52.710;6.502;2023-03-14T08:07:33;7.00;99.90
52555;DHT22;38455;52.710;6.502;2023-03-14T08:09:59;6.90;99.90
52555;DHT22;38455;52.710;6.502;2023-03-14T08:12:25;6.80;99.90
52555;DHT22;38455;52.710;6.502;2023-03-14T08:14:50;6.60;99.90
52555;DHT22;38455;52.710;6.502;2023-03-14T08:17:16;6.60;99.90
52555;DHT22;38455;52.710;6.502;2023-03-14T08:19:44;6.40;99.90
52555;DHT22;38455;52.710;6.502;2023-03-14T08:22:10;6.40;99.90
52555;DHT22;38455;52.710;6.502;2023-03-14T08:24:35;6.30;99.90
52555;DHT22;38455;52.710;6.502;2023-03-14T08:27:01;6.30;99.90
52555;DHT22;38455;52.710;6.502;2023-03-14T08:29:26;6.30;99.90
52555;DHT22;38455;52.710;6.502;2023-03-14T08:31:52;6.30;99.90
52555;DHT22;38455;52.710;6.502;2023-03-14T08:34:21;6.30;99.90
52555;DHT22;38455;52.710;6.502;2023-03-14T08:36:47;6.30;99.90
52555;DHT22;38455;52.710;6.502;2023-03-14T08:39:12;6.10;99.90
52555;DHT22;38455;52.710;6.502;2023-03-14T08:41:38;6.10;99.90
52555;DHT22;38455;52.710;6.502;2023-03-14T08:44:09;6.10;99.90
52555;DHT22;38455;52.710;6.502;2023-03-14T08:46:37;6.20;99.90
52555;DHT22;38455;52.710;6.502;2023-03-14T08:49:03;6.20;99.90
52555;DHT22;38455;52.710;6.502;2023-03-14T08:51:29;6.20;99.90
52555;DHT22;38455;52.710;6.502;2023-03-14T08:53:54;6.20;99.90
52555;DHT22;38455;52.710;6.502;2023-03-14T08:56:20;6.30;99.90
52555;DHT22;38455;52.710;6.502;2023-03-14T08:58:45;6.30;99.90
52555;DHT22;38455;52.710;6.502;2023-03-14T09:01:11;6.30;99.90
52555;DHT22;38455;52.710;6.502;2023-03-14T09:03:37;6.30;99.90
52555;DHT22;38455;52.710;6.502;2023-03-14T09:06:08;6.30;99.90
52555;DHT22;38455;52.710;6.502;2023-03-14T09:08:35;6.30;99.90
52555;DHT22;38455;52.710;6.502;2023-03-14T09:11:01;6.30;99.90
52555;DHT22;38455;52.710;6.502;2023-03-14T09:13:27;6.50;99.90
52555;DHT22;38455;52.710;6.502;2023-03-14T09:15:54;6.50;99.90
52555;DHT22;38455;52.710;6.502;2023-03-14T09:18:20;6.70;99.90
52555;DHT22;38455;52.710;6.502;2023-03-14T09:20:46;7.10;99.90
52555;DHT22;38455;52.710;6.502;2023-03-14T09:23:11;7.10;99.90
52555;DHT22;38455;52.710;6.502;2023-03-14T09:25:37;7.30;99.90
52555;DHT22;38455;52.710;6.502;2023-03-14T09:28:03;7.30;99.90
52555;DHT22;38455;52.710;6.502;2023-03-14T09:30:29;7.40;99.90
52555;DHT22;38455;52.710;6.502;2023-03-14T09:32:54;7.40;99.90
52555;DHT22;38455;52.710;6.502;2023-03-14T09:35:20;7.60;99.90
52555;DHT22;38455;52.710;6.502;2023-03-14T09:37:46;7.80;99.90
52555;DHT22;38455;52.710;6.502;2023-03-14T09:40:13;8.00;99.90
52555;DHT22;38455;52.710;6.502;2023-03-14T09:42:40;8.20;99.90
52555;DHT22;38455;52.710;6.502;2023-03-14T09:45:16;8.20;99.90
52555;DHT22;38455;52.710;6.502;2023-03-14T09:47:43;8.20;99.90
52555;DHT22;38455;52.710;6.502;2023-03-14T09:50:15;8.10;99.90
52555;DHT22;38455;52.710;6.502;2023-03-14T09:52:46;8.20;99.90
52555;DHT22;38455;52.710;6.502;2023-03-14T09:55:19;8.30;99.90
52555;DHT22;38455;52.710;6.502;2023-03-14T09:57:47;8.50;99.90
52555;DHT22;38455;52.710;6.502;2023-03-14T10:00:21;8.50;99.90
52555;DHT22;38455;52.710;6.502;2023-03-14T10:02:59;8.60;99.90
52555;DHT22;38455;52.710;6.502;2023-03-14T10:05:27;8.60;99.90
52555;DHT22;38455;52.710;6.502;2023-03-14T10:07:55;8.70;99.90
52555;DHT22;38455;52.710;6.502;2023-03-14T10:10:22;8.60;99.90
52555;DHT22;38455;52.710;6.502;2023-03-14T10:15:38;9.30;99.90
52555;DHT22;38455;52.710;6.502;2023-03-14T10:18:10;9.60;99.90
52555;DHT22;38455;52.710;6.502;2023-03-14T10:20:46;9.50;99.90
52555;DHT22;38455;52.710;6.502;2023-03-14T10:25:44;8.60;99.90
52555;DHT22;38455;52.710;6.502;2023-03-14T10:28:25;8.40;99.90
52555;DHT22;38455;52.710;6.502;2023-03-14T10:30:52;8.40;99.90
52555;DHT22;38455;52.710;6.502;2023-03-14T10:35:45;8.20;99.90
52555;DHT22;38455;52.710;6.502;2023-03-14T10:38:16;8.00;99.90
52555;DHT22;38455;52.710;6.502;2023-03-14T10:40:50;7.80;99.90
52555;DHT22;38455;52.710;6.502;2023-03-14T10:43:44;7.70;99.90
52555;DHT22;38455;52.710;6.502;2023-03-14T10:46:18;7.80;99.90
52555;DHT22;38455;52.710;6.502;2023-03-14T10:48:44;7.70;99.90
52555;DHT22;38455;52.710;6.502;2023-03-14T10:51:27;7.70;99.90
52555;DHT22;38455;52.710;6.502;2023-03-14T10:56:24;7.70;99.90
52555;DHT22;38455;52.710;6.502;2023-03-14T10:58:53;7.90;99.90
52555;DHT22;38455;52.710;6.502;2023-03-14T11:09:58;8.70;99.90
52555;DHT22;38455;52.710;6.502;2023-03-14T11:15:37;9.30;99.90
52555;DHT22;38455;52.710;6.502;2023-03-14T11:21:21;8.90;99.90
52555;DHT22;38455;52.710;6.502;2023-03-14T11:32:49;9.00;99.90
52555;DHT22;38455;52.710;6.502;2023-03-14T11:35:30;9.30;99.90
52555;DHT22;38455;52.710;6.502;2023-03-14T11:38:24;9.90;99.90
52555;DHT22;38455;52.710;6.502;2023-03-14T11:40:54;10.00;99.90
52555;DHT22;38455;52.710;6.502;2023-03-14T11:43:33;10.10;99.90
52555;DHT22;38455;52.710;6.502;2023-03-14T11:49:34;10.10;99.90
52555;DHT22;38455;52.710;6.502;2023-03-14T11:52:21;10.70;99.90
52555;DHT22;38455;52.710;6.502;2023-03-14T11:54:59;11.90;99.90
52555;DHT22;38455;52.710;6.502;2023-03-14T11:57:25;12.10;97.10
52555;DHT22;38455;52.710;6.502;2023-03-14T12:00:04;11.60;96.10
52555;DHT22;38455;52.710;6.502;2023-03-14T12:08:25;10.90;96.80
52555;DHT22;38455;52.710;6.502;2023-03-14T12:13:51;11.00;98.30
52555;DHT22;38455;52.710;6.502;2023-03-14T12:18:49;12.60;93.20
52555;DHT22;38455;52.710;6.502;2023-03-14T12:21:15;12.60;92.00
52555;DHT22;38455;52.710;6.502;2023-03-14T12:23:54;12.80;90.80
52555;DHT22;38455;52.710;6.502;2023-03-14T12:26:24;13.10;91.00
52555;DHT22;38455;52.710;6.502;2023-03-14T12:44:47;14.30;72.70
52555;DHT22;38455;52.710;6.502;2023-03-14T12:49:42;13.90;69.90
52555;DHT22;38455;52.710;6.502;2023-03-14T12:55:09;14.10;72.30
52555;DHT22;38455;52.710;6.502;2023-03-14T12:57:45;14.10;74.50
52555;DHT22;38455;52.710;6.502;2023-03-14T13:00:29;13.50;74.30
52555;DHT22;38455;52.710;6.502;2023-03-14T13:03:20;13.50;73.90
52555;DHT22;38455;52.710;6.502;2023-03-14T13:06:02;11.80;72.20
52555;DHT22;38455;52.710;6.502;2023-03-14T13:08:41;11.90;77.50
52555;DHT22;38455;52.710;6.502;2023-03-14T13:11:15;11.50;81.10
52555;DHT22;38455;52.710;6.502;2023-03-14T13:13:45;11.20;82.20
52555;DHT22;38455;52.710;6.502;2023-03-14T13:16:18;11.50;84.60
52555;DHT22;38455;52.710;6.502;2023-03-14T13:19:11;10.90;84.10
52555;DHT22;38455;52.710;6.502;2023-03-14T13:21:39;10.20;83.60
52555;DHT22;38455;52.710;6.502;2023-03-14T13:24:17;10.20;88.60
52555;DHT22;38455;52.710;6.502;2023-03-14T13:26:45;9.90;90.60
52555;DHT22;38455;52.710;6.502;2023-03-14T13:29:25;9.60;91.40
52555;DHT22;38455;52.710;6.502;2023-03-14T13:31:57;10.10;91.40
52555;DHT22;38455;52.710;6.502;2023-03-14T13:34:29;10.30;90.60
52555;DHT22;38455;52.710;6.502;2023-03-14T13:36:55;10.10;90.40
52555;DHT22;38455;52.710;6.502;2023-03-14T13:39:26;9.80;88.50
52555;DHT22;38455;52.710;6.502;2023-03-14T13:41:58;9.80;89.00
52555;DHT22;38455;52.710;6.502;2023-03-14T13:44:29;9.60;87.50
52555;DHT22;38455;52.710;6.502;2023-03-14T13:47:00;9.60;87.00
52555;DHT22;38455;52.710;6.502;2023-03-14T13:49:27;9.70;85.80
52555;DHT22;38455;52.710;6.502;2023-03-14T13:51:54;10.70;85.90
52555;DHT22;38455;52.710;6.502;2023-03-14T13:54:21;11.20;83.00
52555;DHT22;38455;52.710;6.502;2023-03-14T13:56:48;11.40;73.20
52555;DHT22;38455;52.710;6.502;2023-03-14T13:59:28;11.70;72.80
52555;DHT22;38455;52.710;6.502;2023-03-14T14:01:54;11.50;69.60
52555;DHT22;38455;52.710;6.502;2023-03-14T14:04:23;11.00;70.30
52555;DHT22;38455;52.710;6.502;2023-03-14T14:06:57;10.60;73.80
52555;DHT22;38455;52.710;6.502;2023-03-14T14:09:26;10.50;74.80
52555;DHT22;38455;52.710;6.502;2023-03-14T14:12:28;10.10;77.60
52555;DHT22;38455;52.710;6.502;2023-03-14T14:20:00;11.90;72.30
52555;DHT22;38455;52.710;6.502;2023-03-14T14:22:27;12.60;73.50
52555;DHT22;38455;52.710;6.502;2023-03-14T14:24:52;13.20;72.70
52555;DHT22;38455;52.710;6.502;2023-03-14T14:30:02;12.90;68.60
52555;DHT22;38455;52.710;6.502;2023-03-14T14:32:35;12.00;70.00
52555;DHT22;38455;52.710;6.502;2023-03-14T14:35:02;10.30;69.60
52555;DHT22;38455;52.710;6.502;2023-03-14T14:37:34;9.60;72.90
52555;DHT22;38455;52.710;6.502;2023-03-14T14:40:16;9.30;74.30
52555;DHT22;38455;52.710;6.502;2023-03-14T14:42:44;8.70;74.10
52555;DHT22;38455;52.710;6.502;2023-03-14T14:45:21;8.90;76.50
52555;DHT22;38455;52.710;6.502;2023-03-14T14:48:21;9.00;76.80
52555;DHT22;38455;52.710;6.502;2023-03-14T14:53:37;9.10;78.90
52555;DHT22;38455;52.710;6.502;2023-03-14T14:58:36;8.90;79.40
52555;DHT22;38455;52.710;6.502;2023-03-14T15:01:07;8.80;80.50
52555;DHT22;38455;52.710;6.502;2023-03-14T15:03:35;8.70;81.70
52555;DHT22;38455;52.710;6.502;2023-03-14T15:06:03;8.80;82.70
52555;DHT22;38455;52.710;6.502;2023-03-14T15:08:29;8.90;83.80
52555;DHT22;38455;52.710;6.502;2023-03-14T15:10:56;8.90;84.20
52555;DHT22;38455;52.710;6.502;2023-03-14T15:13:22;9.00;82.50
52555;DHT22;38455;52.710;6.502;2023-03-14T15:15:50;8.90;80.90
52555;DHT22;38455;52.710;6.502;2023-03-14T15:18:22;8.70;82.10
52555;DHT22;38455;52.710;6.502;2023-03-14T15:20:49;8.40;75.20
52555;DHT22;38455;52.710;6.502;2023-03-14T15:23:16;8.30;75.30
52555;DHT22;38455;52.710;6.502;2023-03-14T15:25:43;8.30;76.80
52555;DHT22;38455;52.710;6.502;2023-03-14T15:28:22;8.30;78.20
52555;DHT22;38455;52.710;6.502;2023-03-14T15:30:53;8.10;83.20
52555;DHT22;38455;52.710;6.502;2023-03-14T15:33:20;8.10;80.90
52555;DHT22;38455;52.710;6.502;2023-03-14T15:35:46;8.10;80.80
52555;DHT22;38455;52.710;6.502;2023-03-14T15:38:15;7.90;82.00
52555;DHT22;38455;52.710;6.502;2023-03-14T15:40:41;7.80;82.80
52555;DHT22;38455;52.710;6.502;2023-03-14T15:43:08;7.90;83.50
52555;DHT22;38455;52.710;6.502;2023-03-14T15:45:34;7.80;84.50
52555;DHT22;38455;52.710;6.502;2023-03-14T15:48:00;7.80;85.70
52555;DHT22;38455;52.710;6.502;2023-03-14T15:50:29;7.80;85.50
52555;DHT22;38455;52.710;6.502;2023-03-14T15:52:55;7.70;87.50
52555;DHT22;38455;52.710;6.502;2023-03-14T15:55:21;7.70;89.90
52555;DHT22;38455;52.710;6.502;2023-03-14T15:57:47;7.60;95.50
52555;DHT22;38455;52.710;6.502;2023-03-14T16:00:16;7.50;97.00
52555;DHT22;38455;52.710;6.502;2023-03-14T16:02:48;7.40;97.70
52555;DHT22;38455;52.710;6.502;2023-03-14T16:05:14;7.40;97.70
52555;DHT22;38455;52.710;6.502;2023-03-14T16:07:40;7.40;98.00
52555;DHT22;38455;52.710;6.502;2023-03-14T16:10:07;7.30;98.40
52555;DHT22;38455;52.710;6.502;2023-03-14T16:12:34;7.40;98.80
52555;DHT22;38455;52.710;6.502;2023-03-14T16:15:00;7.20;99.30
52555;DHT22;38455;52.710;6.502;2023-03-14T16:17:26;7.00;99.90
52555;DHT22;38455;52.710;6.502;2023-03-14T16:19:52;7.00;99.90
52555;DHT22;38455;52.710;6.502;2023-03-14T16:22:17;6.90;99.90
52555;DHT22;38455;52.710;6.502;2023-03-14T16:24:43;6.80;99.90
52555;DHT22;38455;52.710;6.502;2023-03-14T16:27:09;6.80;99.90
52555;DHT22;38455;52.710;6.502;2023-03-14T16:29:35;6.80;99.90
52555;DHT22;38455;52.710;6.502;2023-03-14T16:32:00;6.80;99.90
52555;DHT22;38455;52.710;6.502;2023-03-14T16:34:26;6.70;99.90
52555;DHT22;38455;52.710;6.502;2023-03-14T16:36:52;6.70;99.90
52555;DHT22;38455;52.710;6.502;2023-03-14T16:39:18;6.70;99.90
52555;DHT22;38455;52.710;6.502;2023-03-14T16:41:44;6.60;99.90
52555;DHT22;38455;52.710;6.502;2023-03-14T16:44:10;6.50;99.90
52555;DHT22;38455;52.710;6.502;2023-03-14T16:46:36;6.50;99.90
52555;DHT22;38455;52.710;6.502;2023-03-14T16:49:02;6.50;99.90
52555;DHT22;38455;52.710;6.502;2023-03-14T16:51:28;6.60;99.90
52555;DHT22;38455;52.710;6.502;2023-03-14T16:53:54;6.50;99.90
52555;DHT22;38455;52.710;6.502;2023-03-14T16:56:20;6.40;99.90
52555;DHT22;38455;52.710;6.502;2023-03-14T16:58:47;6.40;99.90
52555;DHT22;38455;52.710;6.502;2023-03-14T17:01:14;6.30;99.90
52555;DHT22;38455;52.710;6.502;2023-03-14T17:03:44;6.30;99.90
52555;DHT22;38455;52.710;6.502;2023-03-14T17:06:16;6.30;99.90
52555;DHT22;38455;52.710;6.502;2023-03-14T17:08:43;6.20;99.90
52555;DHT22;38455;52.710;6.502;2023-03-14T17:11:09;6.10;99.90
52555;DHT22;38455;52.710;6.502;2023-03-14T17:13:35;6.10;99.90
52555;DHT22;38455;52.710;6.502;2023-03-14T17:16:02;6.00;99.90
52555;DHT22;38455;52.710;6.502;2023-03-14T17:18:28;6.00;99.90